D/T METAR WX W/DIR W/SPE G/SPE TEMP DEWP
19/03/19 03:20 EGCC 190320Z AUTO VRB01KT 2800 BR OVC003 08/07 Q1023 NOSIG BR N (0°) 1.2mph 8°C 7°C
19/03/19 02:50 EGCC 190250Z AUTO VRB02KT 3900 BR OVC003 08/07 Q1023 NOSIG BR N (0°) 2.3mph 8°C 7°C
19/03/19 02:20 EGCC 190220Z AUTO 20002KT 3000 BR OVC003 08/07 Q1023 BR SSW (200°) 2.3mph 8°C 7°C
19/03/19 01:50 EGCC 190150Z AUTO 16002KT 2100 BR OVC003 07/07 Q1023 NOSIG BR SSE (160°) 2.3mph 7°C 7°C
19/03/19 01:20 EGCC 190120Z AUTO 24002KT 2300 BR OVC004 07/07 Q1023 BR WSW (240°) 2.3mph 7°C 7°C
19/03/19 00:50 EGCC 190050Z AUTO 25002KT 3000 BR BKN002 OVC009 07/07 Q1023 NOSIG BR WSW (250°) 2.3mph 7°C 7°C
19/03/19 00:20 EGCC 190020Z AUTO 19002KT 2600 BR OVC003 07/07 Q1023 NOSIG BR S (190°) 2.3mph 7°C 7°C
18/03/19 23:50 EGCC 182350Z AUTO VRB02KT 1500 BR BKN003 07/07 Q1023 NOSIG BR N (0°) 2.3mph 7°C 7°C
18/03/19 23:20 EGCC 182320Z AUTO VRB02KT 3600 BR BKN003 BKN006 OVC014 07/07 Q1023 TEMPO SCT003 BKN015 BR N (0°) 2.3mph 7°C 7°C
18/03/19 22:50 EGCC 182250Z AUTO 22002KT 3900 BR OVC002 07/07 Q1022 TEMPO FEW002 BKN006 BR SW (220°) 2.3mph 7°C 7°C
18/03/19 22:20 EGCC 182220Z AUTO VRB02KT 4200 BR OVC002 07/07 Q1022 RERA TEMPO 8000 -DZ FEW002 BKN006 BR N (0°) 2.3mph 7°C 7°C
18/03/19 21:50 EGCC 182150Z VRB02KT 4400 RA BKN003 OVC012 07/07 Q1022 TEMPO 8000 -DZ RA N (0°) 2.3mph 7°C 7°C
18/03/19 21:20 EGCC 182120Z 20004KT 170V260 5000 -DZ FEW002 BKN005 07/07 Q1022 REDZ TEMPO 4000 DZ -DZ SSW (200°) 4.6mph 7°C 7°C
18/03/19 20:50 EGCC 182050Z VRB02KT 2800 DZ FEW003 BKN005 07/07 Q1022 RERA TEMPO BKN003 DZ N (0°) 2.3mph 7°C 7°C
18/03/19 20:20 EGCC 182020Z VRB02KT 2100 RADZ BKN004 07/07 Q1022 RERA TEMPO 5000 -RADZ BKN006 RA DZ N (0°) 2.3mph 7°C 7°C
18/03/19 19:50 EGCC 181950Z 19003KT 7000 -RADZ FEW004 BKN009 07/06 Q1022 RERA REDZ NOSIG -RA -DZ S (190°) 3.5mph 7°C 6°C
18/03/19 19:20 EGCC 181920Z VRB02KT 6000 -RA BKN009 OVC015 07/06 Q1021 TEMPO BKN006 -RA N (0°) 2.3mph 7°C 6°C
18/03/19 18:50 EGCC 181850Z VRB02KT 6000 -RADZ FEW008 BKN011 07/06 Q1021 TEMPO RADZ BKN006 -RA -DZ N (0°) 2.3mph 7°C 6°C
18/03/19 18:20 EGCC 181820Z VRB02KT 5000 -RADZ SCT006 BKN011 07/06 Q1021 RERA REDZ TEMPO RADZ BKN006 -RA -DZ N (0°) 2.3mph 7°C 6°C
18/03/19 17:50 EGCC 181750Z 20002KT 5000 RADZ BKN013 07/06 Q1021 TEMPO BKN010 RA DZ SSW (200°) 2.3mph 7°C 6°C
18/03/19 17:20 EGCC 181720Z VRB02KT 9999 -RA BKN024 07/06 Q1020 TEMPO BKN010 -RA N (0°) 2.3mph 7°C 6°C
18/03/19 16:50 EGCC 181650Z AUTO 19003KT 9999 -RA SCT020 BKN028 BKN033 07/06 Q1020 TEMPO BKN010 -RA S (190°) 3.5mph 7°C 6°C
18/03/19 16:20 EGCC 181620Z 21003KT 9999 6000E -RA FEW007 BKN021 07/06 Q1020 TEMPO 4500 RADZ BKN006 -RA SSW (210°) 3.5mph 7°C 6°C
18/03/19 15:50 EGCC 181550Z AUTO 22004KT 9999 -RA SCT012 BKN020 BKN028 07/06 Q1020 TEMPO 4500 RADZ BKN006 -RA SW (220°) 4.6mph 7°C 6°C
18/03/19 15:20 EGCC 181520Z AUTO 22005KT 9000 -RA FEW013 SCT018 BKN024 08/06 Q1020 TEMPO BKN010 -RA SW (220°) 5.8mph 8°C 6°C
18/03/19 14:50 EGCC 181450Z AUTO VRB03KT 9999 -RA FEW011 SCT017 BKN033 08/06 Q1020 TEMPO BKN010 -RA N (0°) 3.5mph 8°C 6°C
18/03/19 14:20 EGCC 181420Z AUTO 25007KT 9999 -RA SCT015 BKN022 08/05 Q1020 TEMPO BKN010 -RA WSW (250°) 8.1mph 8°C 5°C
18/03/19 13:50 EGCC 181350Z AUTO 24008KT 170V260 9999 -RA SCT016 BKN022 BKN031 08/05 Q1020 TEMPO BKN010 -RA WSW (240°) 9.2mph 8°C 5°C
18/03/19 13:20 EGCC 181320Z AUTO 23008KT 190V260 9999 -RA BKN015 BKN030 OVC041 08/05 Q1020 NOSIG -RA SW (230°) 9.2mph 8°C 5°C
18/03/19 12:50 EGCC 181250Z AUTO 24007KT 190V260 9999 -RA BKN014 OVC029 07/05 Q1020 -RA WSW (240°) 8.1mph 7°C 5°C
18/03/19 12:20 EGCC 181220Z AUTO 26006KT 9999 -RA SCT011 BKN015 OVC021 07/05 Q1020 NOSIG -RA W (260°) 6.9mph 7°C 5°C
18/03/19 11:50 EGCC 181150Z AUTO 25007KT 9999 -RA SCT015 BKN019 OVC032 07/05 Q1020 -RA WSW (250°) 8.1mph 7°C 5°C
18/03/19 10:50 EGCC 181050Z AUTO 26009KT 9999 -RA FEW016 SCT025 BKN030 07/04 Q1019 -RA W (260°) 10.4mph 7°C 4°C
18/03/19 10:20 EGCC 181020Z 26012KT 9999 -SHRA SCT015 BKN037 07/04 Q1019 -SHRA W (260°) 13.8mph 7°C 4°C
18/03/19 09:50 EGCC 180950Z 24005KT 190V290 9999 SCT011TCU BKN019 07/05 Q1019 NOSIG WSW (240°) 5.8mph 7°C 5°C
18/03/19 09:20 EGCC 180920Z 24006KT 9999 SCT011 SCT032TCU 06/04 Q1019 NOSIG WSW (240°) 6.9mph 6°C 4°C
18/03/19 08:50 EGCC 180850Z 22004KT 9999 -SHRA SCT014CB SCT030TCU 06/04 Q1018 -SHRA SW (220°) 4.6mph 6°C 4°C
18/03/19 08:20 EGCC 180820Z 25004KT 9999 FEW016CB FEW028TCU SCT032 06/03 Q1018 NOSIG WSW (250°) 4.6mph 6°C 3°C
18/03/19 07:50 EGCC 180750Z 23006KT 9999 SCT016TCU BKN028 06/04 Q1018 TEMPO -RA BKN010 SW (230°) 6.9mph 6°C 4°C
18/03/19 07:20 EGCC 180720Z 24006KT 9999 SCT017 06/04 Q1018 NOSIG WSW (240°) 6.9mph 6°C 4°C
18/03/19 06:50 EGCC 180650Z 23004KT 9999 FEW013 SCT032 05/04 Q1017 NOSIG SW (230°) 4.6mph 5°C 4°C
18/03/19 06:20 EGCC 180620Z 20003KT 9999 SCT013 SCT031 04/03 Q1017 NOSIG SSW (200°) 3.5mph 4°C 3°C
18/03/19 05:50 EGCC 180550Z AUTO 23004KT 9999 BKN013 04/03 Q1017 TEMPO FEW013 SW (230°) 4.6mph 4°C 3°C
18/03/19 05:20 EGCC 180520Z AUTO 23004KT 9999 NCD 04/03 Q1017 SW (230°) 4.6mph 4°C 3°C
18/03/19 04:50 EGCC 180450Z AUTO 25006KT 9999 NCD 04/02 Q1017 NOSIG WSW (250°) 6.9mph 4°C 2°C
18/03/19 04:20 EGCC 180420Z AUTO 27006KT 9999 FEW024 SCT045 04/02 Q1016 NOSIG W (270°) 6.9mph 4°C 2°C
18/03/19 03:50 EGCC 180350Z AUTO 28005KT 9999 SCT027 SCT035 05/02 Q1016 NOSIG W (280°) 5.8mph 5°C 2°C
18/03/19 03:20 EGCC 180320Z AUTO 28005KT 9999 FEW027 05/02 Q1016 NOSIG W (280°) 5.8mph 5°C 2°C
18/03/19 02:50 EGCC 180250Z AUTO 28006KT 9999 NCD 05/03 Q1016 W (280°) 6.9mph 5°C 3°C
18/03/19 02:20 EGCC 180220Z AUTO 28006KT 9999 FEW021 05/03 Q1016 NOSIG W (280°) 6.9mph 5°C 3°C
18/03/19 01:50 EGCC 180150Z AUTO 29009KT 9999 FEW018 05/03 Q1015 NOSIG WNW (290°) 10.4mph 5°C 3°C
18/03/19 01:20 EGCC 180120Z AUTO 29008KT 9999 NCD 05/03 Q1015 NOSIG WNW (290°) 9.2mph 5°C 3°C
18/03/19 00:50 EGCC 180050Z AUTO 24005KT 9999 NCD 04/02 Q1015 NOSIG WSW (240°) 5.8mph 4°C 2°C
18/03/19 00:20 EGCC 180020Z AUTO 28006KT 9999 NCD 05/02 Q1014 NOSIG W (280°) 6.9mph 5°C 2°C
17/03/19 23:50 EGCC 172350Z AUTO 29006KT 9999 NCD 05/03 Q1014 NOSIG WNW (290°) 6.9mph 5°C 3°C
17/03/19 23:20 EGCC 172320Z AUTO 27004KT 220V300 9999 NCD 05/02 Q1014 NOSIG W (270°) 4.6mph 5°C 2°C
17/03/19 22:50 EGCC 172250Z AUTO 28008KT 9999 NCD 05/02 Q1013 NOSIG W (280°) 9.2mph 5°C 2°C
17/03/19 22:20 EGCC 172220Z AUTO 29009KT 9999 NCD 06/03 Q1013 NOSIG WNW (290°) 10.4mph 6°C 3°C
17/03/19 21:50 EGCC 172150Z AUTO 29007KT 9999 NCD 06/03 Q1012 NOSIG WNW (290°) 8.1mph 6°C 3°C
17/03/19 20:50 EGCC 172050Z AUTO 28008KT 9999 NCD 06/03 Q1011 NOSIG W (280°) 9.2mph 6°C 3°C
17/03/19 20:20 EGCC 172020Z AUTO 29012KT 9999 NCD 07/04 Q1011 NOSIG WNW (290°) 13.8mph 7°C 4°C
17/03/19 19:50 EGCC 171950Z AUTO 30013KT 9999 SCT047 07/04 Q1010 NOSIG WNW (300°) 15.0mph 7°C 4°C
17/03/19 19:20 EGCC 171920Z AUTO 28009KT 9999 BKN020 OVC044 07/04 Q1009 NOSIG W (280°) 10.4mph 7°C 4°C
17/03/19 18:50 EGCC 171850Z AUTO 29008KT 9999 SCT021 BKN038 OVC048 07/04 Q1009 NOSIG WNW (290°) 9.2mph 7°C 4°C
17/03/19 18:20 EGCC 171820Z AUTO 28008KT 9999 SCT022 BKN046 06/04 Q1008 NOSIG W (280°) 9.2mph 6°C 4°C
17/03/19 17:50 EGCC 171750Z AUTO 28010KT 9999 -RA FEW021 BKN032 BKN041 06/04 Q1007 NOSIG -RA W (280°) 11.5mph 6°C 4°C
17/03/19 17:20 EGCC 171720Z AUTO 29012KT 9999 FEW025 BKN031 07/03 Q1007 NOSIG WNW (290°) 13.8mph 7°C 3°C
17/03/19 16:50 EGCC 171650Z 28010KT 9999 FEW022 BKN030 07/03 Q1006 NOSIG W (280°) 11.5mph 7°C 3°C
17/03/19 16:20 EGCC 171620Z 28010KT 9999 VCSH FEW020 SCT030CB 06/04 Q1006 VCSH W (280°) 11.5mph 6°C 4°C
17/03/19 15:50 EGCC 171550Z 28013KT 9999 -SHRA FEW010 SCT018 BKN030CB 06/04 Q1006 NOSIG -SHRA W (280°) 15.0mph 6°C 4°C
17/03/19 15:20 EGCC 171520Z 28010KT 9999 -SHRA FEW012 SCT024CB 06/04 Q1005 NOSIG -SHRA W (280°) 11.5mph 6°C 4°C
17/03/19 14:50 EGCC 171450Z 27016KT 9999 VCSH FEW020 SCT036TCU 07/03 Q1005 NOSIG VCSH W (270°) 18.4mph 7°C 3°C
17/03/19 14:20 EGCC 171420Z 27013KT 9999 VCSH FEW020 FEW028CB 06/03 Q1004 TEMPO SHRA VCSH W (270°) 15.0mph 6°C 3°C
17/03/19 13:50 EGCC 171350Z 29015KT 220V310 9999 VCSH SCT028CB 07/01 Q1004 TEMPO SHRA VCSH WNW (290°) 17.3mph 7°C 1°C
17/03/19 13:20 EGCC 171320Z 27016KT 9999 VCSH FEW032TCU 07/01 Q1004 VCSH W (270°) 18.4mph 7°C 1°C
17/03/19 12:50 EGCC 171250Z 26017KT 9999 BKN027 08/03 Q1003 NOSIG W (260°) 19.6mph 8°C 3°C
17/03/19 12:20 EGCC 171220Z 27015KT 9999 -RA SCT027 SCT034 BKN046 06/02 Q1003 NOSIG -RA W (270°) 17.3mph 6°C 2°C
17/03/19 11:20 EGCC 171120Z 27017KT 9999 SCT028CB 07/02 Q1002 W (270°) 19.6mph 7°C 2°C
17/03/19 10:50 EGCC 171050Z AUTO 27016G27KT 9999 BKN025/// BKN033/// //////TCU 05/01 Q1002 W (270°) 18.4mph 31.1mph 5°C 1°C
17/03/19 09:50 EGCC 170950Z 27015G25KT 9999 -SHRA SCT022CB 04/01 Q1002 NOSIG -SHRA W (270°) 17.3mph 28.8mph 4°C 1°C
17/03/19 09:20 EGCC 170920Z 26013KT 9999 VCSH BKN024CB 04/01 Q1001 NOSIG VCSH W (260°) 15.0mph 4°C 1°C
17/03/19 08:50 EGCC 170850Z 27012KT 9999 FEW011 SCT024CB 05/01 Q1001 NOSIG W (270°) 13.8mph 5°C 1°C
17/03/19 08:20 EGCC 170820Z 26013KT 9999 FEW027CB 05/01 Q1000 W (260°) 15.0mph 5°C 1°C
17/03/19 07:20 EGCC 170720Z 25010KT 9999 SCT023CB 03/01 Q0999 NOSIG WSW (250°) 11.5mph 3°C 1°C
17/03/19 06:50 EGCC 170650Z 26013KT 9999 SCT021CB 04/01 Q0999 W (260°) 15.0mph 4°C 1°C
17/03/19 06:20 EGCC 170620Z AUTO 24009KT 9999 BKN022/// BKN028/// BKN037/// //////TCU 03/01 Q0998 TEMPO SHRA WSW (240°) 10.4mph 3°C 1°C
17/03/19 05:50 EGCC 170550Z AUTO 24009KT 9999 SCT025/// SCT030/// BKN039/// //////CB 03/01 Q0998 WSW (240°) 10.4mph 3°C 1°C
17/03/19 05:20 EGCC 170520Z AUTO 26012KT 220V280 9999 BKN022/// //////CB 03/01 Q0998 TEMPO SHRA W (260°) 13.8mph 3°C 1°C
17/03/19 04:50 EGCC 170450Z AUTO 24006KT 9999 FEW026/// SCT033/// //////CB 03/01 Q0997 TEMPO SHRA WSW (240°) 6.9mph 3°C 1°C
17/03/19 04:20 EGCC 170420Z AUTO 27009KT 9999 SCT023/// BKN031/// BKN044/// //////TCU 03/01 Q0997 TEMPO SHRA W (270°) 10.4mph 3°C 1°C
17/03/19 03:50 EGCC 170350Z AUTO 27012KT 9999 -RA SCT015/// BKN024/// //////TCU 04/02 Q0997 TEMPO SHRA -RA W (270°) 13.8mph 4°C 2°C
17/03/19 03:20 EGCC 170320Z AUTO 26007KT 9999 SCT019 BKN029 04/02 Q0996 TEMPO SHRA W (260°) 8.1mph 4°C 2°C
17/03/19 02:50 EGCC 170250Z AUTO 25008KT 9999 -RA BKN016/// BKN023/// BKN037/// //////TCU 04/02 Q0996 TEMPO SHRA -RA WSW (250°) 9.2mph 4°C 2°C
17/03/19 02:20 EGCC 170220Z AUTO 26008KT 9999 -RA BKN018/// BKN032/// //////TCU 04/03 Q0996 RERA TEMPO SHRA -RA W (260°) 9.2mph 4°C 3°C
17/03/19 01:50 EGCC 170150Z AUTO 27012KT 4900 RA BKN013/// BKN019/// //////TCU 04/02 Q0995 RERA TEMPO 9999 NSW SCT013 BKN019 RA W (270°) 13.8mph 4°C 2°C
17/03/19 01:20 EGCC 170120Z AUTO 29005KT 9999 SCT012/// BKN021/// BKN028/// //////CB 04/03 Q0995 TEMPO SHRA WNW (290°) 5.8mph 4°C 3°C
17/03/19 00:50 EGCC 170050Z AUTO 26008KT 9999 -RA BKN019/// BKN036/// //////TCU 05/03 Q0995 -RA W (260°) 9.2mph 5°C 3°C
17/03/19 00:20 EGCC 170020Z AUTO 27009KT 9999 -RA SCT016/// BKN026/// BKN038/// //////TCU 05/03 Q0994 -RA W (270°) 10.4mph 5°C 3°C
16/03/19 23:50 EGCC 162350Z AUTO 28008KT 9999 -RA SCT020 BKN037 BKN048 05/03 Q0994 TEMPO SHRA -RA W (280°) 9.2mph 5°C 3°C
16/03/19 23:20 EGCC 162320Z AUTO 26006KT 220V290 9999 -RA BKN015/// BKN022/// BKN028/// //////TCU 05/04 Q0994 TEMPO 4000 +SHRA BKN014 -RA W (260°) 6.9mph 5°C 4°C
16/03/19 22:50 EGCC 162250Z AUTO 26010KT 220V290 8000 -RA SCT010/// BKN014/// BKN019/// //////TCU 05/04 Q0993 RERA TEMPO SHRA -RA W (260°) 11.5mph 5°C 4°C
16/03/19 22:20 EGCC 162220Z AUTO 25010KT 9999 -RA BKN015/// OVC034/// //////CB 05/04 Q0993 -RA WSW (250°) 11.5mph 5°C 4°C
16/03/19 21:50 EGCC 162150Z AUTO 25005KT 9999 SCT021/// BKN030/// BKN040/// //////TCU 06/03 Q0993 WSW (250°) 5.8mph 6°C 3°C
16/03/19 21:20 EGCC 162120Z AUTO 28006KT 260V320 9000 -RA BKN018/// BKN026/// //////TCU 05/04 Q0993 RERA TEMPO SHRA -RA W (280°) 6.9mph 5°C 4°C
16/03/19 20:50 EGCC 162050Z AUTO 26006KT 9999 -RA SCT022/// BKN035/// //////TCU 06/03 Q0992 TEMPO SHRA -RA W (260°) 6.9mph 6°C 3°C
16/03/19 20:20 EGCC 162020Z AUTO 27007KT 9999 FEW025 BKN032 06/02 Q0992 NOSIG W (270°) 8.1mph 6°C 2°C
16/03/19 19:50 EGCC 161950Z AUTO 28011KT 9999 SCT024 BKN032 06/03 Q0992 W (280°) 12.7mph 6°C 3°C
16/03/19 19:20 EGCC 161920Z AUTO 28014KT 9999 SCT022 BKN028 BKN034 06/03 Q0991 NOSIG W (280°) 16.1mph 6°C 3°C
16/03/19 18:50 EGCC 161850Z AUTO 27015KT 9999 BKN017 OVC044 07/04 Q0990 W (270°) 17.3mph 7°C 4°C
16/03/19 18:20 EGCC 161820Z 27019KT 9999 -RA BKN012 07/05 Q0990 -RA W (270°) 21.9mph 7°C 5°C
16/03/19 17:50 EGCC 161750Z 27020KT 8000 -RA BKN014TCU 08/06 Q0989 RERA NOSIG -RA W (270°) 23.0mph 8°C 6°C
16/03/19 17:20 EGCC 161720Z AUTO 22017KT 9999 -RA SCT017/// BKN022/// BKN027/// //////CB 10/08 Q0988 NOSIG -RA SW (220°) 19.6mph 10°C 8°C
16/03/19 16:50 EGCC 161650Z 21012G24KT 170V230 8000 -RA SCT014TCU BKN018 10/09 Q0988 -RA SSW (210°) 13.8mph 27.6mph 10°C 9°C
16/03/19 16:20 EGCC 161620Z 21013KT 9999 8000E -RA FEW014 BKN019TCU 10/09 Q0988 TEMPO 6000 RA BKN012 -RA SSW (210°) 15.0mph 10°C 9°C
16/03/19 15:50 EGCC 161550Z 21015G25KT 9999 -RA BKN018CB 11/09 Q0988 NOSIG -RA SSW (210°) 17.3mph 28.8mph 11°C 9°C
16/03/19 15:20 EGCC 161520Z 21016G27KT 9999 -RA BKN020 11/08 Q0989 NOSIG -RA SSW (210°) 18.4mph 31.1mph 11°C 8°C
16/03/19 14:20 EGCC 161420Z 20016G26KT 9999 7000NE -RA BKN025TCU 11/08 Q0990 NOSIG -RA SSW (200°) 18.4mph 29.9mph 11°C 8°C
16/03/19 13:50 EGCC 161350Z AUTO 20016KT 170V230 9999 -RA BKN024/// OVC031/// //////TCU 11/08 Q0990 NOSIG -RA SSW (200°) 18.4mph 11°C 8°C
16/03/19 13:20 EGCC 161320Z AUTO 20014KT 160V230 9999 -RA BKN022/// OVC032/// //////TCU 11/09 Q0991 NOSIG -RA SSW (200°) 16.1mph 11°C 9°C
16/03/19 12:50 EGCC 161250Z 20013G23KT 170V230 9000 -RA BKN022 11/09 Q0992 -RA SSW (200°) 15.0mph 26.5mph 11°C 9°C
16/03/19 12:20 EGCC 161220Z 20015KT 9999 7000NE -RA FEW020 BKN030 11/09 Q0992 NOSIG -RA SSW (200°) 17.3mph 11°C 9°C
16/03/19 11:50 EGCC 161150Z AUTO 21014KT 9999 -RA BKN028/// OVC034/// //////TCU 11/08 Q0993 NOSIG -RA SSW (210°) 16.1mph 11°C 8°C
16/03/19 11:20 EGCC 161120Z AUTO 20015KT 9999 -RA OVC030/// //////CB 10/08 Q0993 -RA SSW (200°) 17.3mph 10°C 8°C
16/03/19 10:50 EGCC 161050Z AUTO 20013G23KT 180V240 9999 -RA BKN017/// OVC027/// //////TCU 10/08 Q0994 NOSIG -RA SSW (200°) 15.0mph 26.5mph 10°C 8°C
16/03/19 10:20 EGCC 161020Z AUTO 21013KT 150V230 9999 SCT017/// OVC028/// //////TCU 10/08 Q0994 NOSIG SSW (210°) 15.0mph 10°C 8°C
16/03/19 09:50 EGCC 160950Z 21014KT 9999 -RA BKN020TCU 11/08 Q0994 RERA NOSIG -RA SSW (210°) 16.1mph 11°C 8°C
16/03/19 09:20 EGCC 160920Z AUTO 21015KT 4300 RA BKN020/// OVC029/// //////TCU 10/08 Q0995 NOSIG RA SSW (210°) 17.3mph 10°C 8°C
16/03/19 08:50 EGCC 160850Z AUTO 21014KT 5000 -RA SCT016/// BKN021/// OVC028/// //////CB 10/08 Q0995 RERA NOSIG -RA SSW (210°) 16.1mph 10°C 8°C
16/03/19 08:20 EGCC 160820Z AUTO 21014G24KT 6000 -RA BKN016/// OVC027/// //////TCU 10/08 Q0995 RERA NOSIG -RA SSW (210°) 16.1mph 27.6mph 10°C 8°C
16/03/19 07:20 EGCC 160720Z AUTO 21015G26KT 8000 -RA FEW017/// BKN022/// OVC035/// //////TCU 10/08 Q0996 NOSIG -RA SSW (210°) 17.3mph 29.9mph 10°C 8°C
16/03/19 06:50 EGCC 160650Z AUTO 20015G25KT 8000 -RA BKN018/// OVC032/// //////TCU 10/08 Q0996 NOSIG -RA SSW (200°) 17.3mph 28.8mph 10°C 8°C
16/03/19 06:20 EGCC 160620Z AUTO 21014G25KT 9999 -RA OVC020/// //////TCU 10/08 Q0997 TEMPO RA BKN014 -RA SSW (210°) 16.1mph 28.8mph 10°C 8°C
16/03/19 05:50 EGCC 160550Z AUTO 21013KT 9999 -RA BKN020/// BKN025/// //////TCU 10/09 Q0997 TEMPO RA BKN012 -RA SSW (210°) 15.0mph 10°C 9°C
16/03/19 04:50 EGCC 160450Z AUTO 22013KT 6000 -RA BKN016/// OVC025/// //////TCU 10/09 Q0998 TEMPO RA BKN012 -RA SW (220°) 15.0mph 10°C 9°C
16/03/19 04:20 EGCC 160420Z AUTO 20009KT 130V220 8000 -RA BKN017/// BKN022/// OVC026/// //////TCU 09/09 Q0999 TEMPO RA BKN012 -RA SSW (200°) 10.4mph 9°C 9°C
16/03/19 03:50 EGCC 160350Z AUTO 20009KT 170V230 9999 -RA FEW006/// SCT010/// BKN022/// //////TCU 09/08 Q0999 -RA SSW (200°) 10.4mph 9°C 8°C
16/03/19 03:20 EGCC 160320Z AUTO 19007KT 140V230 8000 -RA BKN005/// OVC018/// //////CB 08/07 Q1000 -RA S (190°) 8.1mph 8°C 7°C
16/03/19 02:50 EGCC 160250Z AUTO VRB03KT 6000 -RA OVC006/// //////TCU 06/06 Q1001 RERA TEMPO 4000 RA -RA N (0°) 3.5mph 6°C 6°C
16/03/19 02:20 EGCC 160220Z AUTO VRB03KT 6000 -RA SCT010/// BKN017/// OVC028/// //////TCU 06/06 Q1002 RERA TEMPO 4000 RA BKN008 -RA N (0°) 3.5mph 6°C 6°C
16/03/19 01:50 EGCC 160150Z AUTO VRB03KT 5000 -RA FEW016/// OVC021/// //////TCU 06/06 Q1003 RERA TEMPO 4500 RA BKN014 -RA N (0°) 3.5mph 6°C 6°C
16/03/19 01:20 EGCC 160120Z AUTO VRB02KT 5000 -RA SCT015/// BKN021/// BKN028/// //////TCU 06/05 Q1003 TEMPO RA BKN014 -RA N (0°) 2.3mph 6°C 5°C
16/03/19 00:50 EGCC 160050Z AUTO 19004KT 150V220 9999 -RA OVC031/// //////TCU 06/05 Q1004 NOSIG -RA S (190°) 4.6mph 6°C 5°C
16/03/19 00:20 EGCC 160020Z AUTO 17004KT 130V210 9999 -RA BKN030 OVC044 06/05 Q1005 NOSIG -RA S (170°) 4.6mph 6°C 5°C
15/03/19 23:50 EGCC 152350Z AUTO VRB03KT 9999 -RA SCT032 OVC046 06/04 Q1006 -RA N (0°) 3.5mph 6°C 4°C